sensor_id;sensor_type;location;lat;lon;timestamp;P1;durP1;ratioP1;P2;durP2;ratioP2
61188;SDS011;47054;39.716;2.904;2023-04-24T00:02:17;9.63;;;5.25;;
61188;SDS011;47054;39.716;2.904;2023-04-24T00:05:03;10.25;;;5.10;;
61188;SDS011;47054;39.716;2.904;2023-04-24T00:07:49;8.18;;;5.10;;
61188;SDS011;47054;39.716;2.904;2023-04-24T00:10:38;11.02;;;5.00;;
61188;SDS011;47054;39.716;2.904;2023-04-24T00:13:23;7.45;;;4.55;;
61188;SDS011;47054;39.716;2.904;2023-04-24T00:16:07;10.38;;;5.20;;
61188;SDS011;47054;39.716;2.904;2023-04-24T00:18:52;8.32;;;4.60;;
61188;SDS011;47054;39.716;2.904;2023-04-24T00:21:36;9.30;;;5.25;;
61188;SDS011;47054;39.716;2.904;2023-04-24T00:24:22;10.63;;;5.18;;
61188;SDS011;47054;39.716;2.904;2023-04-24T00:27:06;10.05;;;5.13;;
61188;SDS011;47054;39.716;2.904;2023-04-24T00:29:51;10.18;;;5.50;;
61188;SDS011;47054;39.716;2.904;2023-04-24T00:32:37;10.85;;;5.55;;
61188;SDS011;47054;39.716;2.904;2023-04-24T00:35:21;8.23;;;5.05;;
61188;SDS011;47054;39.716;2.904;2023-04-24T00:38:07;9.63;;;4.65;;
61188;SDS011;47054;39.716;2.904;2023-04-24T00:40:52;8.70;;;4.28;;
61188;SDS011;47054;39.716;2.904;2023-04-24T00:43:38;8.25;;;4.97;;
61188;SDS011;47054;39.716;2.904;2023-04-24T00:46:23;7.30;;;4.88;;
61188;SDS011;47054;39.716;2.904;2023-04-24T00:49:08;9.68;;;4.82;;
61188;SDS011;47054;39.716;2.904;2023-04-24T00:51:52;8.25;;;4.57;;
61188;SDS011;47054;39.716;2.904;2023-04-24T00:54:37;7.88;;;4.75;;
61188;SDS011;47054;39.716;2.904;2023-04-24T00:57:22;8.23;;;4.63;;
61188;SDS011;47054;39.716;2.904;2023-04-24T01:00:08;8.38;;;5.13;;
61188;SDS011;47054;39.716;2.904;2023-04-24T01:02:56;8.68;;;4.65;;
61188;SDS011;47054;39.716;2.904;2023-04-24T01:05:44;8.20;;;4.38;;
61188;SDS011;47054;39.716;2.904;2023-04-24T01:08:28;7.43;;;4.50;;
61188;SDS011;47054;39.716;2.904;2023-04-24T01:11:14;8.82;;;4.82;;
61188;SDS011;47054;39.716;2.904;2023-04-24T01:13:58;8.80;;;4.40;;
61188;SDS011;47054;39.716;2.904;2023-04-24T01:16:43;8.30;;;4.40;;
61188;SDS011;47054;39.716;2.904;2023-04-24T01:19:28;8.77;;;4.63;;
61188;SDS011;47054;39.716;2.904;2023-04-24T01:22:13;8.50;;;4.72;;
61188;SDS011;47054;39.716;2.904;2023-04-24T01:24:59;8.65;;;4.47;;
61188;SDS011;47054;39.716;2.904;2023-04-24T01:27:43;7.15;;;4.47;;
61188;SDS011;47054;39.716;2.904;2023-04-24T01:30:31;6.25;;;4.20;;
61188;SDS011;47054;39.716;2.904;2023-04-24T01:33:16;7.80;;;4.30;;
61188;SDS011;47054;39.716;2.904;2023-04-24T01:36:01;7.80;;;4.32;;
61188;SDS011;47054;39.716;2.904;2023-04-24T01:38:46;9.35;;;4.22;;
61188;SDS011;47054;39.716;2.904;2023-04-24T01:41:31;7.47;;;4.32;;
61188;SDS011;47054;39.716;2.904;2023-04-24T01:44:17;7.38;;;3.95;;
61188;SDS011;47054;39.716;2.904;2023-04-24T01:47:02;7.10;;;4.32;;
61188;SDS011;47054;39.716;2.904;2023-04-24T01:49:48;8.55;;;4.45;;
61188;SDS011;47054;39.716;2.904;2023-04-24T01:52:34;8.63;;;4.47;;
61188;SDS011;47054;39.716;2.904;2023-04-24T01:55:19;7.07;;;4.10;;
61188;SDS011;47054;39.716;2.904;2023-04-24T01:58:04;8.20;;;4.10;;
61188;SDS011;47054;39.716;2.904;2023-04-24T02:00:49;7.25;;;4.28;;
61188;SDS011;47054;39.716;2.904;2023-04-24T02:03:34;7.35;;;4.35;;
61188;SDS011;47054;39.716;2.904;2023-04-24T02:06:18;7.65;;;4.07;;
61188;SDS011;47054;39.716;2.904;2023-04-24T02:09:03;6.47;;;3.97;;
61188;SDS011;47054;39.716;2.904;2023-04-24T02:11:48;10.13;;;4.00;;
61188;SDS011;47054;39.716;2.904;2023-04-24T02:14:32;5.93;;;3.88;;
61188;SDS011;47054;39.716;2.904;2023-04-24T02:17:17;6.82;;;3.88;;
61188;SDS011;47054;39.716;2.904;2023-04-24T02:20:03;7.72;;;4.07;;
61188;SDS011;47054;39.716;2.904;2023-04-24T02:22:49;5.20;;;3.50;;
61188;SDS011;47054;39.716;2.904;2023-04-24T02:25:35;6.60;;;3.75;;
61188;SDS011;47054;39.716;2.904;2023-04-24T02:28:20;8.73;;;4.20;;
61188;SDS011;47054;39.716;2.904;2023-04-24T02:31:04;7.03;;;3.92;;
61188;SDS011;47054;39.716;2.904;2023-04-24T02:33:50;7.80;;;3.95;;
61188;SDS011;47054;39.716;2.904;2023-04-24T02:36:34;6.18;;;3.53;;
61188;SDS011;47054;39.716;2.904;2023-04-24T02:39:19;6.63;;;3.88;;
61188;SDS011;47054;39.716;2.904;2023-04-24T02:42:04;7.85;;;3.72;;
61188;SDS011;47054;39.716;2.904;2023-04-24T02:44:49;7.00;;;3.80;;
61188;SDS011;47054;39.716;2.904;2023-04-24T02:47:35;6.63;;;3.78;;
61188;SDS011;47054;39.716;2.904;2023-04-24T02:50:20;9.48;;;4.22;;
61188;SDS011;47054;39.716;2.904;2023-04-24T02:53:05;9.00;;;3.78;;
61188;SDS011;47054;39.716;2.904;2023-04-24T02:55:49;7.97;;;3.72;;
61188;SDS011;47054;39.716;2.904;2023-04-24T02:58:34;8.82;;;4.05;;
61188;SDS011;47054;39.716;2.904;2023-04-24T03:01:20;6.72;;;3.65;;
61188;SDS011;47054;39.716;2.904;2023-04-24T03:04:04;6.90;;;3.78;;
61188;SDS011;47054;39.716;2.904;2023-04-24T03:06:49;6.53;;;3.45;;
61188;SDS011;47054;39.716;2.904;2023-04-24T03:09:37;6.65;;;3.70;;
61188;SDS011;47054;39.716;2.904;2023-04-24T03:12:22;5.65;;;3.55;;
61188;SDS011;47054;39.716;2.904;2023-04-24T03:15:08;6.45;;;3.28;;
61188;SDS011;47054;39.716;2.904;2023-04-24T03:17:54;7.05;;;3.72;;
61188;SDS011;47054;39.716;2.904;2023-04-24T03:20:39;7.70;;;3.65;;
61188;SDS011;47054;39.716;2.904;2023-04-24T03:23:23;5.95;;;3.35;;
61188;SDS011;47054;39.716;2.904;2023-04-24T03:26:08;5.78;;;3.33;;
61188;SDS011;47054;39.716;2.904;2023-04-24T03:28:56;5.78;;;3.60;;
61188;SDS011;47054;39.716;2.904;2023-04-24T03:31:41;7.32;;;3.40;;
61188;SDS011;47054;39.716;2.904;2023-04-24T03:34:26;6.88;;;3.90;;
61188;SDS011;47054;39.716;2.904;2023-04-24T03:37:11;5.63;;;3.22;;
61188;SDS011;47054;39.716;2.904;2023-04-24T03:39:59;5.30;;;3.40;;
61188;SDS011;47054;39.716;2.904;2023-04-24T03:42:45;6.72;;;3.58;;
61188;SDS011;47054;39.716;2.904;2023-04-24T03:45:30;5.72;;;3.45;;
61188;SDS011;47054;39.716;2.904;2023-04-24T03:48:15;6.95;;;3.40;;
61188;SDS011;47054;39.716;2.904;2023-04-24T03:50:59;6.40;;;3.45;;
61188;SDS011;47054;39.716;2.904;2023-04-24T03:53:45;5.60;;;3.20;;
61188;SDS011;47054;39.716;2.904;2023-04-24T03:56:33;6.65;;;3.25;;
61188;SDS011;47054;39.716;2.904;2023-04-24T03:59:19;5.43;;;3.25;;
61188;SDS011;47054;39.716;2.904;2023-04-24T04:02:09;4.65;;;3.17;;
61188;SDS011;47054;39.716;2.904;2023-04-24T04:04:55;5.40;;;3.10;;
61188;SDS011;47054;39.716;2.904;2023-04-24T04:07:39;5.80;;;3.33;;
61188;SDS011;47054;39.716;2.904;2023-04-24T04:10:24;5.07;;;3.08;;
61188;SDS011;47054;39.716;2.904;2023-04-24T04:13:08;5.90;;;3.15;;
61188;SDS011;47054;39.716;2.904;2023-04-24T04:15:54;5.10;;;3.10;;
61188;SDS011;47054;39.716;2.904;2023-04-24T04:18:39;7.53;;;3.20;;
61188;SDS011;47054;39.716;2.904;2023-04-24T04:21:25;5.75;;;3.25;;
61188;SDS011;47054;39.716;2.904;2023-04-24T04:24:16;6.93;;;3.22;;
61188;SDS011;47054;39.716;2.904;2023-04-24T04:27:04;4.82;;;2.92;;
61188;SDS011;47054;39.716;2.904;2023-04-24T04:29:54;4.97;;;3.03;;
61188;SDS011;47054;39.716;2.904;2023-04-24T04:32:41;4.78;;;3.13;;
61188;SDS011;47054;39.716;2.904;2023-04-24T04:35:26;4.38;;;2.80;;
61188;SDS011;47054;39.716;2.904;2023-04-24T04:38:11;6.88;;;2.72;;
61188;SDS011;47054;39.716;2.904;2023-04-24T04:41:01;5.43;;;3.03;;
61188;SDS011;47054;39.716;2.904;2023-04-24T04:43:49;6.68;;;3.30;;
61188;SDS011;47054;39.716;2.904;2023-04-24T04:46:35;5.97;;;3.58;;
61188;SDS011;47054;39.716;2.904;2023-04-24T04:49:35;4.55;;;2.70;;
61188;SDS011;47054;39.716;2.904;2023-04-24T04:52:21;5.60;;;2.92;;
61188;SDS011;47054;39.716;2.904;2023-04-24T04:55:13;4.30;;;3.05;;
61188;SDS011;47054;39.716;2.904;2023-04-24T04:58:25;4.63;;;2.60;;
61188;SDS011;47054;39.716;2.904;2023-04-24T05:01:13;5.35;;;3.20;;
61188;SDS011;47054;39.716;2.904;2023-04-24T05:04:01;5.07;;;2.95;;
61188;SDS011;47054;39.716;2.904;2023-04-24T05:06:45;4.95;;;2.88;;
61188;SDS011;47054;39.716;2.904;2023-04-24T05:09:31;7.10;;;3.60;;
61188;SDS011;47054;39.716;2.904;2023-04-24T05:12:20;6.00;;;3.15;;
61188;SDS011;47054;39.716;2.904;2023-04-24T05:15:09;6.18;;;3.42;;
61188;SDS011;47054;39.716;2.904;2023-04-24T05:17:54;10.15;;;5.70;;
61188;SDS011;47054;39.716;2.904;2023-04-24T05:20:40;14.65;;;6.88;;
61188;SDS011;47054;39.716;2.904;2023-04-24T05:23:27;32.88;;;12.60;;
61188;SDS011;47054;39.716;2.904;2023-04-24T05:26:13;21.88;;;10.40;;
61188;SDS011;47054;39.716;2.904;2023-04-24T05:28:59;21.58;;;9.88;;
61188;SDS011;47054;39.716;2.904;2023-04-24T05:31:43;28.25;;;13.38;;
61188;SDS011;47054;39.716;2.904;2023-04-24T05:34:29;33.58;;;14.43;;
61188;SDS011;47054;39.716;2.904;2023-04-24T05:37:15;30.10;;;13.30;;
61188;SDS011;47054;39.716;2.904;2023-04-24T05:39:59;35.47;;;15.70;;
61188;SDS011;47054;39.716;2.904;2023-04-24T05:42:44;31.35;;;14.63;;
61188;SDS011;47054;39.716;2.904;2023-04-24T05:45:29;56.95;;;25.05;;
61188;SDS011;47054;39.716;2.904;2023-04-24T05:48:14;36.42;;;16.75;;
61188;SDS011;47054;39.716;2.904;2023-04-24T05:51:00;36.95;;;17.38;;
61188;SDS011;47054;39.716;2.904;2023-04-24T05:53:44;35.72;;;15.60;;
61188;SDS011;47054;39.716;2.904;2023-04-24T05:56:29;39.58;;;18.48;;
61188;SDS011;47054;39.716;2.904;2023-04-24T05:59:15;39.10;;;17.45;;
61188;SDS011;47054;39.716;2.904;2023-04-24T06:02:00;36.22;;;16.63;;
61188;SDS011;47054;39.716;2.904;2023-04-24T06:04:46;41.63;;;17.08;;
61188;SDS011;47054;39.716;2.904;2023-04-24T06:07:31;41.92;;;18.73;;
61188;SDS011;47054;39.716;2.904;2023-04-24T06:10:17;37.25;;;16.58;;
61188;SDS011;47054;39.716;2.904;2023-04-24T06:13:02;38.20;;;17.48;;
61188;SDS011;47054;39.716;2.904;2023-04-24T06:15:48;36.70;;;16.63;;
61188;SDS011;47054;39.716;2.904;2023-04-24T06:18:44;39.50;;;17.52;;
61188;SDS011;47054;39.716;2.904;2023-04-24T06:21:31;37.30;;;17.02;;
61188;SDS011;47054;39.716;2.904;2023-04-24T06:24:16;38.40;;;17.05;;
61188;SDS011;47054;39.716;2.904;2023-04-24T06:27:01;34.03;;;16.05;;
61188;SDS011;47054;39.716;2.904;2023-04-24T06:29:46;33.75;;;16.08;;
61188;SDS011;47054;39.716;2.904;2023-04-24T06:32:36;32.67;;;14.65;;
61188;SDS011;47054;39.716;2.904;2023-04-24T06:35:21;33.33;;;15.43;;
61188;SDS011;47054;39.716;2.904;2023-04-24T06:38:05;30.00;;;14.10;;
61188;SDS011;47054;39.716;2.904;2023-04-24T06:40:50;30.88;;;14.40;;
61188;SDS011;47054;39.716;2.904;2023-04-24T06:43:35;31.27;;;14.25;;
61188;SDS011;47054;39.716;2.904;2023-04-24T06:46:19;30.05;;;13.43;;
61188;SDS011;47054;39.716;2.904;2023-04-24T06:49:07;30.80;;;13.98;;
61188;SDS011;47054;39.716;2.904;2023-04-24T06:51:51;29.95;;;13.85;;
61188;SDS011;47054;39.716;2.904;2023-04-24T06:54:36;31.15;;;14.15;;
61188;SDS011;47054;39.716;2.904;2023-04-24T06:57:20;26.08;;;12.88;;
61188;SDS011;47054;39.716;2.904;2023-04-24T07:00:05;27.73;;;12.85;;
61188;SDS011;47054;39.716;2.904;2023-04-24T07:02:51;26.23;;;13.40;;
61188;SDS011;47054;39.716;2.904;2023-04-24T07:05:35;27.77;;;12.93;;
61188;SDS011;47054;39.716;2.904;2023-04-24T07:08:22;27.98;;;12.05;;
61188;SDS011;47054;39.716;2.904;2023-04-24T07:11:06;26.98;;;11.23;;
61188;SDS011;47054;39.716;2.904;2023-04-24T07:13:51;22.85;;;10.88;;
61188;SDS011;47054;39.716;2.904;2023-04-24T07:16:36;20.25;;;9.68;;
61188;SDS011;47054;39.716;2.904;2023-04-24T07:19:21;20.17;;;8.93;;
61188;SDS011;47054;39.716;2.904;2023-04-24T07:22:05;18.88;;;8.20;;
61188;SDS011;47054;39.716;2.904;2023-04-24T07:24:50;19.00;;;7.53;;
61188;SDS011;47054;39.716;2.904;2023-04-24T07:27:34;18.40;;;7.78;;
61188;SDS011;47054;39.716;2.904;2023-04-24T07:30:20;16.10;;;7.30;;
61188;SDS011;47054;39.716;2.904;2023-04-24T07:33:04;16.20;;;7.28;;
61188;SDS011;47054;39.716;2.904;2023-04-24T07:35:50;16.50;;;7.03;;
61188;SDS011;47054;39.716;2.904;2023-04-24T07:38:35;13.57;;;6.40;;
61188;SDS011;47054;39.716;2.904;2023-04-24T07:41:19;15.65;;;6.03;;
61188;SDS011;47054;39.716;2.904;2023-04-24T07:44:04;15.85;;;6.22;;
61188;SDS011;47054;39.716;2.904;2023-04-24T07:46:49;14.48;;;5.72;;
61188;SDS011;47054;39.716;2.904;2023-04-24T07:49:33;14.52;;;5.85;;
61188;SDS011;47054;39.716;2.904;2023-04-24T07:52:19;12.05;;;5.63;;
61188;SDS011;47054;39.716;2.904;2023-04-24T07:55:04;20.95;;;6.45;;
61188;SDS011;47054;39.716;2.904;2023-04-24T07:57:49;18.65;;;6.07;;
61188;SDS011;47054;39.716;2.904;2023-04-24T08:00:35;11.77;;;5.72;;
61188;SDS011;47054;39.716;2.904;2023-04-24T08:03:19;11.95;;;5.78;;
61188;SDS011;47054;39.716;2.904;2023-04-24T08:37:25;10.90;;;4.68;;
61188;SDS011;47054;39.716;2.904;2023-04-24T08:40:14;13.00;;;5.30;;
61188;SDS011;47054;39.716;2.904;2023-04-24T08:43:00;15.38;;;5.13;;
61188;SDS011;47054;39.716;2.904;2023-04-24T08:45:45;14.43;;;5.05;;
61188;SDS011;47054;39.716;2.904;2023-04-24T08:48:29;16.13;;;5.25;;
61188;SDS011;47054;39.716;2.904;2023-04-24T08:51:15;13.52;;;5.22;;
61188;SDS011;47054;39.716;2.904;2023-04-24T08:54:00;11.68;;;4.70;;
61188;SDS011;47054;39.716;2.904;2023-04-24T08:56:47;10.68;;;4.45;;
61188;SDS011;47054;39.716;2.904;2023-04-24T08:59:32;11.70;;;4.45;;
61188;SDS011;47054;39.716;2.904;2023-04-24T09:02:19;13.43;;;4.88;;
61188;SDS011;47054;39.716;2.904;2023-04-24T09:05:04;11.25;;;4.60;;
61188;SDS011;47054;39.716;2.904;2023-04-24T09:07:54;17.95;;;4.68;;
61188;SDS011;47054;39.716;2.904;2023-04-24T09:10:40;16.45;;;4.75;;
61188;SDS011;47054;39.716;2.904;2023-04-24T09:13:25;10.10;;;4.32;;
61188;SDS011;47054;39.716;2.904;2023-04-24T09:16:11;14.65;;;4.28;;
61188;SDS011;47054;39.716;2.904;2023-04-24T09:18:55;13.80;;;4.57;;
61188;SDS011;47054;39.716;2.904;2023-04-24T09:21:40;14.32;;;4.65;;
61188;SDS011;47054;39.716;2.904;2023-04-24T09:24:26;18.67;;;4.82;;
61188;SDS011;47054;39.716;2.904;2023-04-24T09:27:11;16.08;;;4.82;;
61188;SDS011;47054;39.716;2.904;2023-04-24T09:29:57;19.42;;;5.10;;
61188;SDS011;47054;39.716;2.904;2023-04-24T09:32:42;15.90;;;4.13;;
61188;SDS011;47054;39.716;2.904;2023-04-24T09:35:26;17.45;;;4.28;;
61188;SDS011;47054;39.716;2.904;2023-04-24T09:38:10;14.95;;;4.57;;
61188;SDS011;47054;39.716;2.904;2023-04-24T09:40:55;12.25;;;4.28;;
61188;SDS011;47054;39.716;2.904;2023-04-24T09:43:43;10.10;;;4.30;;
61188;SDS011;47054;39.716;2.904;2023-04-24T09:46:30;13.90;;;3.90;;
61188;SDS011;47054;39.716;2.904;2023-04-24T09:49:30;14.48;;;4.30;;
61188;SDS011;47054;39.716;2.904;2023-04-24T09:52:17;13.43;;;3.60;;
61188;SDS011;47054;39.716;2.904;2023-04-24T09:55:02;12.68;;;4.00;;
61188;SDS011;47054;39.716;2.904;2023-04-24T10:00:40;7.45;;;3.42;;
61188;SDS011;47054;39.716;2.904;2023-04-24T10:03:25;14.13;;;4.18;;
61188;SDS011;47054;39.716;2.904;2023-04-24T10:06:11;10.82;;;3.63;;
61188;SDS011;47054;39.716;2.904;2023-04-24T10:08:57;8.60;;;3.85;;
61188;SDS011;47054;39.716;2.904;2023-04-24T10:11:43;7.68;;;3.40;;
61188;SDS011;47054;39.716;2.904;2023-04-24T10:14:31;10.35;;;3.75;;
61188;SDS011;47054;39.716;2.904;2023-04-24T10:17:15;16.23;;;4.10;;
61188;SDS011;47054;39.716;2.904;2023-04-24T10:20:00;13.02;;;4.20;;
61188;SDS011;47054;39.716;2.904;2023-04-24T10:22:47;17.42;;;3.97;;
61188;SDS011;47054;39.716;2.904;2023-04-24T10:25:36;10.25;;;3.67;;
61188;SDS011;47054;39.716;2.904;2023-04-24T10:28:22;9.02;;;4.18;;
61188;SDS011;47054;39.716;2.904;2023-04-24T10:31:08;10.60;;;3.50;;
61188;SDS011;47054;39.716;2.904;2023-04-24T10:33:54;12.27;;;3.90;;
61188;SDS011;47054;39.716;2.904;2023-04-24T10:36:40;11.98;;;3.55;;
61188;SDS011;47054;39.716;2.904;2023-04-24T10:39:27;10.82;;;3.90;;
61188;SDS011;47054;39.716;2.904;2023-04-24T10:42:15;8.15;;;3.75;;
61188;SDS011;47054;39.716;2.904;2023-04-24T10:45:04;9.90;;;3.97;;
61188;SDS011;47054;39.716;2.904;2023-04-24T10:47:56;12.25;;;3.65;;
61188;SDS011;47054;39.716;2.904;2023-04-24T10:53:31;8.07;;;3.35;;
61188;SDS011;47054;39.716;2.904;2023-04-24T10:56:19;7.38;;;3.38;;
61188;SDS011;47054;39.716;2.904;2023-04-24T10:59:07;7.65;;;3.28;;
61188;SDS011;47054;39.716;2.904;2023-04-24T11:01:53;10.02;;;3.70;;
61188;SDS011;47054;39.716;2.904;2023-04-24T11:04:41;9.77;;;3.30;;
61188;SDS011;47054;39.716;2.904;2023-04-24T11:07:27;10.65;;;3.97;;
61188;SDS011;47054;39.716;2.904;2023-04-24T11:10:24;11.60;;;3.83;;
61188;SDS011;47054;39.716;2.904;2023-04-24T11:13:10;12.65;;;3.63;;
61188;SDS011;47054;39.716;2.904;2023-04-24T11:19:23;8.85;;;3.30;;
61188;SDS011;47054;39.716;2.904;2023-04-24T11:22:13;12.48;;;3.72;;
61188;SDS011;47054;39.716;2.904;2023-04-24T11:24:59;12.85;;;3.80;;
61188;SDS011;47054;39.716;2.904;2023-04-24T11:27:48;11.50;;;4.30;;
61188;SDS011;47054;39.716;2.904;2023-04-24T11:30:34;10.88;;;4.22;;
61188;SDS011;47054;39.716;2.904;2023-04-24T11:33:19;10.18;;;3.92;;
61188;SDS011;47054;39.716;2.904;2023-04-24T11:36:05;12.57;;;4.63;;
61188;SDS011;47054;39.716;2.904;2023-04-24T11:38:50;11.73;;;4.20;;
61188;SDS011;47054;39.716;2.904;2023-04-24T11:41:35;7.13;;;3.60;;
61188;SDS011;47054;39.716;2.904;2023-04-24T11:44:19;10.35;;;4.32;;
61188;SDS011;47054;39.716;2.904;2023-04-24T11:47:05;13.60;;;4.13;;
61188;SDS011;47054;39.716;2.904;2023-04-24T11:49:50;14.68;;;4.15;;
61188;SDS011;47054;39.716;2.904;2023-04-24T11:52:39;12.00;;;4.10;;
61188;SDS011;47054;39.716;2.904;2023-04-24T11:55:25;14.13;;;4.50;;
61188;SDS011;47054;39.716;2.904;2023-04-24T11:58:11;11.00;;;3.92;;
61188;SDS011;47054;39.716;2.904;2023-04-24T12:00:56;12.07;;;4.65;;
61188;SDS011;47054;39.716;2.904;2023-04-24T12:03:42;12.35;;;4.40;;
61188;SDS011;47054;39.716;2.904;2023-04-24T12:06:31;13.68;;;4.40;;
61188;SDS011;47054;39.716;2.904;2023-04-24T12:09:16;15.35;;;5.00;;
61188;SDS011;47054;39.716;2.904;2023-04-24T12:12:00;12.48;;;4.80;;
61188;SDS011;47054;39.716;2.904;2023-04-24T12:14:48;12.27;;;4.63;;
61188;SDS011;47054;39.716;2.904;2023-04-24T12:17:34;12.65;;;4.18;;
61188;SDS011;47054;39.716;2.904;2023-04-24T12:20:31;9.35;;;4.70;;
61188;SDS011;47054;39.716;2.904;2023-04-24T12:23:16;14.68;;;5.00;;
61188;SDS011;47054;39.716;2.904;2023-04-24T12:26:18;12.80;;;4.03;;
61188;SDS011;47054;39.716;2.904;2023-04-24T12:29:03;11.82;;;4.03;;
61188;SDS011;47054;39.716;2.904;2023-04-24T12:31:49;13.98;;;4.65;;
61188;SDS011;47054;39.716;2.904;2023-04-24T12:34:35;16.75;;;4.65;;
61188;SDS011;47054;39.716;2.904;2023-04-24T12:37:20;17.25;;;4.55;;
61188;SDS011;47054;39.716;2.904;2023-04-24T12:40:09;10.80;;;4.47;;
61188;SDS011;47054;39.716;2.904;2023-04-24T12:42:54;13.75;;;4.50;;
61188;SDS011;47054;39.716;2.904;2023-04-24T12:45:38;11.27;;;4.20;;
61188;SDS011;47054;39.716;2.904;2023-04-24T12:48:23;15.32;;;4.68;;
61188;SDS011;47054;39.716;2.904;2023-04-24T12:51:07;13.70;;;4.90;;
61188;SDS011;47054;39.716;2.904;2023-04-24T12:53:52;12.30;;;4.13;;
61188;SDS011;47054;39.716;2.904;2023-04-24T12:56:36;16.63;;;4.78;;
61188;SDS011;47054;39.716;2.904;2023-04-24T12:59:23;12.68;;;4.30;;
61188;SDS011;47054;39.716;2.904;2023-04-24T13:02:08;14.70;;;4.40;;
61188;SDS011;47054;39.716;2.904;2023-04-24T13:04:53;9.10;;;3.70;;
61188;SDS011;47054;39.716;2.904;2023-04-24T13:07:38;12.35;;;4.30;;
61188;SDS011;47054;39.716;2.904;2023-04-24T13:10:22;14.05;;;4.60;;
61188;SDS011;47054;39.716;2.904;2023-04-24T13:13:07;16.42;;;4.38;;
61188;SDS011;47054;39.716;2.904;2023-04-24T13:15:52;10.95;;;4.75;;
61188;SDS011;47054;39.716;2.904;2023-04-24T13:18:37;13.02;;;4.53;;
61188;SDS011;47054;39.716;2.904;2023-04-24T13:21:21;11.52;;;4.20;;
61188;SDS011;47054;39.716;2.904;2023-04-24T13:24:06;14.15;;;4.00;;
61188;SDS011;47054;39.716;2.904;2023-04-24T13:26:52;7.75;;;3.50;;
61188;SDS011;47054;39.716;2.904;2023-04-24T13:29:37;14.23;;;3.90;;
61188;SDS011;47054;39.716;2.904;2023-04-24T13:32:21;8.57;;;3.45;;
61188;SDS011;47054;39.716;2.904;2023-04-24T13:35:06;15.75;;;5.28;;
61188;SDS011;47054;39.716;2.904;2023-04-24T13:37:51;16.80;;;5.00;;
61188;SDS011;47054;39.716;2.904;2023-04-24T13:40:36;15.85;;;4.70;;
61188;SDS011;47054;39.716;2.904;2023-04-24T13:43:21;13.02;;;4.07;;
61188;SDS011;47054;39.716;2.904;2023-04-24T13:46:05;13.30;;;4.32;;
61188;SDS011;47054;39.716;2.904;2023-04-24T13:48:50;10.40;;;4.70;;
61188;SDS011;47054;39.716;2.904;2023-04-24T13:51:35;21.52;;;4.82;;
61188;SDS011;47054;39.716;2.904;2023-04-24T13:54:20;11.02;;;4.05;;
61188;SDS011;47054;39.716;2.904;2023-04-24T13:57:07;12.13;;;4.20;;
61188;SDS011;47054;39.716;2.904;2023-04-24T13:59:51;13.43;;;4.47;;
61188;SDS011;47054;39.716;2.904;2023-04-24T14:02:36;15.77;;;4.20;;
61188;SDS011;47054;39.716;2.904;2023-04-24T14:05:20;11.43;;;4.47;;
61188;SDS011;47054;39.716;2.904;2023-04-24T14:08:06;12.05;;;4.30;;
61188;SDS011;47054;39.716;2.904;2023-04-24T14:10:50;13.48;;;4.60;;
61188;SDS011;47054;39.716;2.904;2023-04-24T14:13:36;8.35;;;3.95;;
61188;SDS011;47054;39.716;2.904;2023-04-24T14:16:21;8.23;;;4.38;;
61188;SDS011;47054;39.716;2.904;2023-04-24T14:19:06;13.00;;;4.65;;
61188;SDS011;47054;39.716;2.904;2023-04-24T14:21:51;13.32;;;4.75;;
61188;SDS011;47054;39.716;2.904;2023-04-24T14:24:35;16.17;;;4.78;;
61188;SDS011;47054;39.716;2.904;2023-04-24T14:27:20;13.52;;;4.70;;
61188;SDS011;47054;39.716;2.904;2023-04-24T14:30:05;22.35;;;4.72;;
61188;SDS011;47054;39.716;2.904;2023-04-24T14:32:50;12.70;;;4.40;;
61188;SDS011;47054;39.716;2.904;2023-04-24T14:35:35;15.20;;;4.78;;
61188;SDS011;47054;39.716;2.904;2023-04-24T14:38:21;13.20;;;4.25;;
61188;SDS011;47054;39.716;2.904;2023-04-24T14:41:06;14.32;;;4.60;;
61188;SDS011;47054;39.716;2.904;2023-04-24T14:43:54;12.13;;;3.92;;
61188;SDS011;47054;39.716;2.904;2023-04-24T14:46:38;11.23;;;4.53;;
61188;SDS011;47054;39.716;2.904;2023-04-24T14:49:23;13.88;;;4.57;;
61188;SDS011;47054;39.716;2.904;2023-04-24T14:52:08;11.70;;;4.32;;
61188;SDS011;47054;39.716;2.904;2023-04-24T14:54:52;14.25;;;4.28;;
61188;SDS011;47054;39.716;2.904;2023-04-24T14:57:37;18.58;;;4.70;;
61188;SDS011;47054;39.716;2.904;2023-04-24T15:00:22;11.52;;;4.35;;
61188;SDS011;47054;39.716;2.904;2023-04-24T15:03:07;21.90;;;4.63;;
61188;SDS011;47054;39.716;2.904;2023-04-24T15:05:53;9.50;;;4.05;;
61188;SDS011;47054;39.716;2.904;2023-04-24T15:08:37;9.77;;;3.95;;
61188;SDS011;47054;39.716;2.904;2023-04-24T15:11:22;16.60;;;4.07;;
61188;SDS011;47054;39.716;2.904;2023-04-24T15:14:06;14.30;;;4.28;;
61188;SDS011;47054;39.716;2.904;2023-04-24T15:16:50;16.15;;;4.70;;
61188;SDS011;47054;39.716;2.904;2023-04-24T15:19:35;14.68;;;4.85;;
61188;SDS011;47054;39.716;2.904;2023-04-24T15:22:20;12.32;;;4.32;;
61188;SDS011;47054;39.716;2.904;2023-04-24T15:25:05;19.88;;;5.20;;
61188;SDS011;47054;39.716;2.904;2023-04-24T15:27:50;12.68;;;4.45;;
61188;SDS011;47054;39.716;2.904;2023-04-24T15:30:34;15.45;;;4.85;;
61188;SDS011;47054;39.716;2.904;2023-04-24T15:33:20;9.45;;;4.47;;
61188;SDS011;47054;39.716;2.904;2023-04-24T15:36:05;13.07;;;4.57;;
61188;SDS011;47054;39.716;2.904;2023-04-24T15:38:50;16.40;;;5.78;;
61188;SDS011;47054;39.716;2.904;2023-04-24T15:41:35;15.98;;;5.00;;
61188;SDS011;47054;39.716;2.904;2023-04-24T15:44:20;16.23;;;5.15;;
61188;SDS011;47054;39.716;2.904;2023-04-24T15:47:05;15.00;;;4.55;;
61188;SDS011;47054;39.716;2.904;2023-04-24T15:49:50;12.50;;;4.40;;
61188;SDS011;47054;39.716;2.904;2023-04-24T15:52:36;14.23;;;4.13;;
61188;SDS011;47054;39.716;2.904;2023-04-24T15:55:21;14.20;;;3.90;;
61188;SDS011;47054;39.716;2.904;2023-04-24T15:58:05;17.15;;;4.43;;
61188;SDS011;47054;39.716;2.904;2023-04-24T16:00:50;13.35;;;4.00;;
61188;SDS011;47054;39.716;2.904;2023-04-24T16:03:37;13.43;;;4.03;;
61188;SDS011;47054;39.716;2.904;2023-04-24T16:06:22;14.70;;;4.78;;
61188;SDS011;47054;39.716;2.904;2023-04-24T16:09:06;12.00;;;3.95;;
61188;SDS011;47054;39.716;2.904;2023-04-24T16:11:51;10.32;;;4.25;;
61188;SDS011;47054;39.716;2.904;2023-04-24T16:14:37;11.93;;;4.00;;
61188;SDS011;47054;39.716;2.904;2023-04-24T16:17:22;10.65;;;4.32;;
61188;SDS011;47054;39.716;2.904;2023-04-24T16:20:07;12.73;;;3.95;;
61188;SDS011;47054;39.716;2.904;2023-04-24T16:22:52;14.55;;;3.95;;
61188;SDS011;47054;39.716;2.904;2023-04-24T16:25:36;13.77;;;4.20;;
61188;SDS011;47054;39.716;2.904;2023-04-24T16:28:21;12.98;;;4.05;;
61188;SDS011;47054;39.716;2.904;2023-04-24T16:31:06;16.95;;;4.10;;
61188;SDS011;47054;39.716;2.904;2023-04-24T16:33:50;14.18;;;4.00;;
61188;SDS011;47054;39.716;2.904;2023-04-24T16:36:35;16.02;;;4.28;;
61188;SDS011;47054;39.716;2.904;2023-04-24T16:39:20;12.63;;;4.57;;
61188;SDS011;47054;39.716;2.904;2023-04-24T16:42:05;13.55;;;4.68;;
61188;SDS011;47054;39.716;2.904;2023-04-24T16:44:50;12.00;;;4.47;;
61188;SDS011;47054;39.716;2.904;2023-04-24T16:47:35;12.73;;;4.15;;
61188;SDS011;47054;39.716;2.904;2023-04-24T16:50:19;12.05;;;3.90;;
61188;SDS011;47054;39.716;2.904;2023-04-24T16:53:04;9.88;;;3.88;;
61188;SDS011;47054;39.716;2.904;2023-04-24T16:55:49;14.07;;;3.95;;
61188;SDS011;47054;39.716;2.904;2023-04-24T16:58:34;13.68;;;4.30;;
61188;SDS011;47054;39.716;2.904;2023-04-24T17:01:19;16.88;;;4.40;;
61188;SDS011;47054;39.716;2.904;2023-04-24T17:04:04;12.68;;;5.03;;
61188;SDS011;47054;39.716;2.904;2023-04-24T17:06:49;15.32;;;4.45;;
61188;SDS011;47054;39.716;2.904;2023-04-24T17:09:34;12.40;;;4.70;;